createdAt,value
2019-06-15T00:00:36.391Z,92.70
2019-06-15T00:03:05.264Z,92.60
2019-06-15T00:08:04.722Z,92.60
2019-06-15T00:13:01.668Z,92.70
2019-06-15T00:15:30.563Z,92.50
2019-06-15T00:20:27.857Z,92.80
2019-06-15T00:22:56.661Z,93.00
2019-06-15T00:25:25.483Z,93.20
2019-06-15T00:30:24.315Z,93.30
2019-06-15T00:32:53.363Z,93.00
2019-06-15T00:35:22.187Z,92.80
2019-06-15T00:40:19.463Z,92.80
2019-06-15T00:42:48.288Z,92.90
2019-06-15T00:45:17.157Z,93.00
2019-06-15T00:47:45.952Z,92.90
2019-06-15T00:50:17.551Z,93.00
2019-06-15T00:55:14.791Z,93.10
2019-06-15T00:57:43.824Z,93.20
2019-06-15T01:00:15.766Z,93.20
2019-06-15T01:02:45.027Z,93.20
2019-06-15T01:07:46.707Z,93.00
2019-06-15T01:10:18.451Z,93.20
2019-06-15T01:12:47.255Z,93.30
2019-06-15T01:15:16.734Z,93.30
2019-06-15T01:17:48.453Z,92.60
2019-06-15T01:20:17.567Z,93.20
2019-06-15T01:22:46.513Z,93.10
2019-06-15T01:25:18.383Z,93.00
2019-06-15T01:27:47.220Z,92.50
2019-06-15T01:30:19.621Z,92.10
2019-06-15T01:32:48.465Z,92.00
2019-06-15T01:35:18.253Z,92.40
2019-06-15T01:37:47.205Z,92.90
2019-06-15T01:42:47.316Z,93.10
2019-06-15T01:47:45.559Z,93.20
2019-06-15T01:52:43.438Z,93.50
2019-06-15T01:57:45.405Z,93.50
2019-06-15T02:00:31.128Z,93.70
2019-06-15T02:02:59.936Z,94.00
2019-06-15T02:05:28.750Z,94.30
2019-06-15T02:07:57.586Z,94.40
2019-06-15T02:12:58.479Z,94.50
2019-06-15T02:15:27.305Z,94.50
2019-06-15T02:17:56.343Z,94.60
2019-06-15T02:22:53.577Z,95.10
2019-06-15T02:25:35.987Z,95.00
2019-06-15T02:27:58.805Z,94.90
2019-06-15T02:30:30.196Z,94.80
2019-06-15T02:32:59.267Z,94.80
2019-06-15T02:35:28.188Z,94.90
2019-06-15T02:37:58.486Z,95.30
2019-06-15T02:40:27.223Z,95.50
2019-06-15T02:42:56.159Z,95.60
2019-06-15T02:45:24.995Z,95.40
2019-06-15T02:47:53.719Z,95.40
2019-06-15T02:50:22.691Z,95.70
2019-06-15T02:52:51.571Z,95.90
2019-06-15T02:55:20.616Z,95.90
2019-06-15T02:57:49.508Z,95.90
2019-06-15T03:00:21.265Z,96.20
2019-06-15T03:02:50.072Z,96.40
2019-06-15T03:05:18.921Z,96.40
2019-06-15T03:12:45.026Z,97.20
2019-06-15T03:15:15.765Z,97.50
2019-06-15T03:22:47.612Z,98.10
2019-06-15T03:25:16.521Z,98.30
2019-06-15T03:27:45.538Z,98.50
2019-06-15T03:30:14.657Z,98.70
2019-06-15T03:32:43.992Z,98.90
2019-06-15T03:35:15.718Z,99.00
2019-06-15T03:37:44.664Z,99.00
2019-06-15T03:42:43.541Z,99.00
2019-06-15T03:50:11.355Z,99.40
2019-06-15T03:52:40.155Z,99.60
2019-06-15T03:55:09.634Z,99.80
2019-06-15T04:05:06.020Z,99.90
2019-06-15T04:07:34.852Z,99.90
2019-06-15T04:10:05.587Z,99.90
2019-06-15T04:12:34.435Z,99.90
2019-06-15T04:15:03.374Z,99.90
2019-06-15T04:17:32.180Z,99.90
2019-06-15T04:20:01.029Z,99.90
2019-06-15T04:22:29.832Z,99.90
2019-06-15T04:27:27.156Z,99.90
2019-06-15T04:29:55.948Z,99.90
2019-06-15T04:32:24.685Z,99.90
2019-06-15T04:34:53.559Z,99.90
2019-06-15T04:37:22.301Z,99.90
2019-06-15T04:42:19.573Z,99.90
2019-06-15T04:44:48.553Z,99.90
2019-06-15T04:47:17.435Z,99.90
2019-06-15T04:49:46.139Z,99.90
2019-06-15T04:52:15.417Z,99.90
2019-06-15T04:54:44.255Z,99.90
2019-06-15T04:57:15.758Z,99.90
2019-06-15T04:59:46.071Z,99.90
2019-06-15T05:02:15.521Z,99.90
2019-06-15T05:07:14.352Z,99.90
2019-06-15T05:14:46.614Z,99.90
2019-06-15T05:17:18.472Z,99.90
2019-06-15T05:19:47.321Z,99.90
2019-06-15T05:24:47.467Z,99.90
2019-06-15T05:29:47.349Z,99.90
2019-06-15T05:34:46.178Z,99.90
2019-06-15T05:37:15.471Z,99.90
2019-06-15T05:39:44.917Z,99.90
2019-06-15T05:42:16.553Z,99.90
2019-06-15T05:44:48.526Z,99.80
2019-06-15T05:47:17.253Z,99.50
2019-06-15T05:49:46.127Z,99.30
2019-06-15T05:54:45.179Z,99.00
2019-06-15T05:57:21.690Z,98.20
2019-06-15T05:59:47.352Z,96.80
2019-06-15T06:04:46.272Z,94.80
2019-06-15T06:09:43.985Z,94.90
2019-06-15T06:14:43.991Z,94.70
2019-06-15T06:17:16.468Z,94.70
2019-06-15T06:19:45.537Z,95.00
2019-06-15T06:24:44.425Z,95.10
2019-06-15T06:29:43.660Z,95.40
2019-06-15T06:44:35.263Z,94.70
2019-06-15T06:52:00.978Z,94.20
2019-06-15T06:54:29.840Z,93.90
2019-06-15T06:59:27.103Z,93.10
2019-06-15T07:01:56.017Z,93.20
2019-06-15T07:06:53.415Z,93.30
2019-06-15T07:09:22.241Z,92.70
2019-06-15T07:14:19.545Z,92.50
2019-06-15T07:21:45.613Z,92.20
2019-06-15T07:29:15.274Z,90.60
2019-06-15T07:31:44.179Z,88.90
2019-06-15T07:36:46.906Z,84.40
2019-06-15T07:39:18.682Z,84.60
2019-06-15T07:41:47.706Z,82.80
2019-06-15T07:46:45.468Z,83.40
2019-06-15T07:49:15.932Z,83.00
2019-06-15T07:51:47.764Z,82.60
2019-06-15T07:54:18.144Z,82.80
2019-06-15T07:56:46.945Z,81.80
2019-06-15T08:04:14.749Z,79.40
2019-06-15T08:09:14.765Z,73.00
2019-06-15T08:14:17.535Z,70.00
2019-06-15T08:19:16.614Z,70.90
2019-06-15T08:22:04.693Z,71.20
2019-06-15T08:24:33.478Z,71.00
2019-06-15T08:29:30.851Z,71.00
2019-06-15T08:31:59.713Z,69.70
2019-06-15T08:34:28.847Z,67.50
2019-06-15T08:36:57.709Z,68.10
2019-06-15T08:39:26.552Z,67.80
2019-06-15T08:41:57.012Z,67.80
2019-06-15T08:44:26.021Z,64.80
2019-06-15T08:46:54.899Z,65.00
2019-06-15T08:49:23.734Z,65.00
2019-06-15T08:51:52.572Z,69.70
2019-06-15T08:56:49.834Z,62.90
2019-06-15T08:59:18.694Z,63.50
2019-06-15T09:01:47.688Z,63.30
2019-06-15T09:09:18.483Z,65.00
2019-06-15T09:11:47.362Z,63.60
2019-06-15T09:14:16.251Z,63.00
2019-06-15T09:16:48.149Z,64.30
2019-06-15T09:19:17.078Z,65.50
2019-06-15T09:21:47.826Z,65.30
2019-06-15T09:26:46.419Z,64.30
2019-06-15T09:29:16.617Z,64.10
2019-06-15T09:31:46.453Z,66.90
2019-06-15T09:34:19.251Z,66.70
2019-06-15T09:36:47.412Z,64.70
2019-06-15T09:39:18.892Z,69.20
2019-06-15T09:41:47.757Z,66.50
2019-06-15T09:46:45.434Z,60.40
2019-06-15T09:49:14.788Z,61.30
2019-06-15T09:51:45.216Z,60.00
2019-06-15T09:54:15.514Z,65.30
2019-06-15T09:56:44.753Z,63.60
2019-06-15T09:59:25.517Z,62.50
2019-06-15T10:04:14.672Z,66.30
2019-06-15T10:09:14.615Z,66.50
2019-06-15T10:11:46.037Z,61.60
2019-06-15T10:14:16.578Z,61.40
2019-06-15T10:16:45.689Z,60.30
2019-06-15T10:19:16.038Z,62.90
2019-06-15T10:21:44.885Z,63.20
2019-06-15T10:24:15.006Z,62.30
2019-06-15T10:26:44.051Z,61.40
2019-06-15T10:29:15.638Z,59.60
2019-06-15T10:31:45.922Z,59.40
2019-06-15T10:34:16.350Z,60.40
2019-06-15T10:41:47.773Z,62.80
2019-06-15T10:44:19.867Z,61.00
2019-06-15T10:46:48.708Z,58.90
2019-06-15T10:49:17.594Z,56.70
2019-06-15T10:51:46.342Z,58.60
2019-06-15T10:54:17.229Z,59.40
2019-06-15T10:56:46.004Z,60.20
2019-06-15T10:59:17.886Z,60.10
2019-06-15T11:01:46.761Z,60.80
2019-06-15T11:04:15.727Z,57.40
2019-06-15T11:06:45.053Z,58.20
2019-06-15T11:09:16.923Z,58.10
2019-06-15T11:16:43.509Z,56.30
2019-06-15T11:19:19.718Z,58.80
2019-06-15T11:24:17.276Z,60.20
2019-06-15T11:29:17.434Z,56.90
2019-06-15T11:31:46.237Z,59.30
2019-06-15T11:34:19.440Z,58.90
2019-06-15T11:36:48.282Z,57.70
2019-06-15T11:39:18.604Z,57.90
2019-06-15T11:41:47.387Z,58.00
2019-06-15T11:44:17.730Z,58.20
2019-06-15T11:46:46.710Z,57.60
2019-06-15T11:49:16.611Z,58.20
2019-06-15T11:51:47.115Z,57.10
2019-06-15T11:56:49.558Z,56.80
2019-06-15T11:59:18.107Z,59.40
2019-06-15T12:01:46.924Z,59.40
2019-06-15T12:06:50.258Z,60.70
2019-06-15T12:09:19.380Z,57.40
2019-06-15T12:11:48.254Z,58.90
2019-06-15T12:14:18.639Z,55.60
2019-06-15T12:16:47.609Z,56.80
2019-06-15T12:19:18.065Z,58.40
2019-06-15T12:21:46.909Z,59.50
2019-06-15T12:24:18.975Z,59.90
2019-06-15T12:26:47.834Z,59.80
2019-06-15T12:31:47.860Z,59.90
2019-06-15T12:34:21.014Z,60.40
2019-06-15T12:36:48.738Z,59.00
2019-06-15T12:39:20.986Z,59.70
2019-06-15T12:41:49.879Z,57.10
2019-06-15T12:44:19.435Z,56.20
2019-06-15T12:46:48.529Z,55.10
2019-06-15T12:49:19.651Z,55.20
2019-06-15T12:51:48.792Z,58.70
2019-06-15T12:54:19.289Z,52.80
2019-06-15T12:59:22.562Z,55.80
2019-06-15T13:04:21.932Z,53.50
2019-06-15T13:06:50.537Z,55.90
2019-06-15T13:11:47.828Z,54.80
2019-06-15T13:14:18.703Z,53.90
2019-06-15T13:16:48.184Z,55.70
2019-06-15T13:24:14.783Z,55.30
2019-06-15T13:26:44.045Z,57.60
2019-06-15T13:29:13.604Z,57.00
2019-06-15T13:31:44.331Z,57.50
2019-06-15T13:36:48.834Z,55.10
2019-06-15T13:39:19.427Z,53.10
2019-06-15T13:41:48.410Z,53.60
2019-06-15T13:44:17.436Z,54.70
2019-06-15T13:46:46.560Z,55.00
2019-06-15T13:49:18.596Z,55.60
2019-06-15T13:56:47.116Z,52.00
2019-06-15T14:01:47.250Z,51.00
2019-06-15T14:04:19.434Z,49.70
2019-06-15T14:11:47.434Z,53.80
2019-06-15T14:14:19.073Z,53.40
2019-06-15T14:16:48.105Z,54.10
2019-06-15T14:24:15.008Z,51.10
2019-06-15T14:26:44.622Z,52.10
2019-06-15T14:29:17.428Z,53.20
2019-06-15T14:31:50.234Z,52.00
2019-06-15T14:36:47.090Z,51.40
2019-06-15T14:39:17.134Z,50.00
2019-06-15T14:41:48.571Z,51.00
2019-06-15T14:44:17.008Z,49.20
2019-06-15T14:46:45.915Z,50.80
2019-06-15T14:49:18.215Z,50.40
2019-06-15T14:51:50.273Z,51.10
2019-06-15T14:54:17.808Z,49.80
2019-06-15T14:56:46.782Z,44.40
2019-06-15T14:59:21.903Z,46.00
2019-06-15T15:06:49.498Z,51.90
2019-06-15T15:09:19.849Z,46.00
2019-06-15T15:11:48.718Z,46.70
2019-06-15T15:14:17.958Z,47.10
2019-06-15T15:16:46.847Z,47.50
2019-06-15T15:19:16.613Z,49.40
2019-06-15T15:24:16.766Z,50.40
2019-06-15T15:39:16.667Z,48.10
2019-06-15T15:46:46.190Z,47.70
2019-06-15T15:49:18.342Z,49.80
2019-06-15T15:51:47.424Z,45.20
2019-06-15T15:54:16.293Z,47.90
2019-06-15T15:59:20.988Z,44.90
2019-06-15T16:04:18.773Z,47.80
2019-06-15T16:09:16.901Z,45.10
2019-06-15T16:11:46.431Z,45.70
2019-06-15T16:14:16.459Z,46.40
2019-06-15T16:16:46.778Z,45.80
2019-06-15T16:21:47.066Z,48.70
2019-06-15T16:31:46.870Z,48.10
2019-06-15T16:34:16.208Z,47.00
2019-06-15T16:36:46.966Z,44.60
2019-06-15T16:39:16.850Z,44.50
2019-06-15T16:41:47.021Z,45.90
2019-06-15T16:44:17.206Z,47.90
2019-06-15T16:46:46.556Z,49.30
2019-06-15T16:49:18.351Z,48.60
2019-06-15T16:51:46.734Z,49.10
2019-06-15T16:54:16.617Z,48.30
2019-06-15T16:56:46.591Z,47.80
2019-06-15T16:59:15.757Z,50.00
2019-06-15T17:01:47.278Z,48.50
2019-06-15T17:06:47.055Z,49.30
2019-06-15T17:09:17.898Z,46.80
2019-06-15T17:11:47.246Z,47.10
2019-06-15T17:16:46.382Z,49.70
2019-06-15T17:19:16.479Z,47.60
2019-06-15T17:21:46.580Z,49.20
2019-06-15T17:24:19.992Z,51.00
2019-06-15T17:29:17.935Z,51.10
2019-06-15T17:31:46.970Z,51.90
2019-06-15T17:36:49.257Z,52.70
2019-06-15T17:39:21.044Z,52.20
2019-06-15T17:41:52.916Z,52.00
2019-06-15T17:44:21.772Z,52.10
2019-06-15T17:46:51.450Z,53.20
2019-06-15T17:49:22.202Z,54.00
2019-06-15T17:51:53.807Z,54.90
2019-06-15T17:54:22.655Z,55.50
2019-06-15T17:56:51.599Z,55.80
2019-06-15T17:59:22.374Z,56.50
2019-06-15T18:01:51.336Z,56.90
2019-06-15T18:04:20.409Z,58.60
2019-06-15T18:06:49.358Z,58.90
2019-06-15T18:14:20.141Z,59.50
2019-06-15T18:19:17.879Z,60.10
2019-06-15T18:21:47.003Z,60.40
2019-06-15T18:26:48.476Z,61.90
2019-06-15T18:29:18.343Z,60.70
2019-06-15T18:31:47.214Z,59.60
2019-06-15T18:36:46.144Z,59.10
2019-06-15T18:39:17.152Z,59.50
2019-06-15T18:44:16.154Z,59.90
2019-06-15T18:51:46.085Z,60.90
2019-06-15T18:54:16.975Z,61.10
2019-06-15T18:56:49.030Z,61.70
2019-06-15T18:59:18.147Z,62.20
2019-06-15T19:01:47.439Z,62.90
2019-06-15T19:04:24.547Z,62.80
2019-06-15T19:06:47.192Z,63.20
2019-06-15T19:09:16.370Z,63.80
2019-06-15T19:11:48.249Z,63.70
2019-06-15T19:16:49.401Z,62.80
2019-06-15T19:19:18.716Z,63.20
2019-06-15T19:21:47.510Z,63.50
2019-06-15T19:24:16.848Z,62.80
2019-06-15T19:26:46.072Z,63.20
2019-06-15T19:39:21.782Z,63.50
2019-06-15T19:41:50.792Z,64.30
2019-06-15T19:44:22.143Z,64.50
2019-06-15T19:46:50.985Z,63.90
2019-06-15T19:51:51.444Z,64.20
2019-06-15T19:56:48.776Z,65.10
2019-06-15T20:06:46.072Z,64.60
2019-06-15T20:16:46.825Z,65.50
2019-06-15T20:24:20.831Z,65.60
2019-06-15T20:26:49.891Z,65.90
2019-06-15T20:29:20.257Z,66.30
2019-06-15T20:31:49.069Z,66.60
2019-06-15T20:34:18.600Z,66.80
2019-06-15T20:39:16.556Z,67.10
2019-06-15T20:41:47.204Z,67.10
2019-06-15T20:44:21.633Z,67.00
2019-06-15T20:54:18.106Z,67.20
2019-06-15T21:01:48.375Z,68.20
2019-06-15T21:11:46.021Z,68.10
2019-06-15T21:14:18.136Z,69.00
2019-06-15T21:16:47.070Z,68.50
2019-06-15T21:19:17.009Z,69.40
2019-06-15T21:21:47.207Z,69.40
2019-06-15T21:24:17.004Z,69.90
2019-06-15T21:36:46.746Z,69.50
2019-06-15T21:51:47.397Z,70.70
2019-06-15T22:04:36.953Z,71.40
2019-06-15T22:09:36.370Z,72.20
2019-06-15T22:12:06.845Z,72.20
2019-06-15T22:14:35.980Z,72.50
2019-06-15T22:17:06.802Z,73.00
2019-06-15T22:22:07.582Z,73.20
2019-06-15T22:24:36.384Z,72.90
2019-06-15T22:27:06.661Z,72.70
2019-06-15T22:29:36.508Z,73.50
2019-06-15T22:34:36.259Z,73.10
2019-06-15T22:37:06.863Z,73.30
2019-06-15T22:39:37.086Z,73.80
2019-06-15T22:42:06.839Z,74.30
2019-06-15T22:49:36.151Z,75.40
2019-06-15T22:52:06.515Z,75.50
2019-06-15T23:09:29.086Z,74.30
2019-06-15T23:14:26.469Z,74.60
2019-06-15T23:21:57.261Z,75.00
2019-06-15T23:26:57.109Z,75.60
2019-06-15T23:29:27.124Z,76.30
2019-06-15T23:31:57.191Z,76.70
2019-06-15T23:34:27.070Z,77.30
2019-06-15T23:37:00.682Z,77.80
2019-06-15T23:44:26.971Z,78.60
2019-06-15T23:46:56.550Z,78.90
2019-06-15T23:49:26.954Z,79.30
2019-06-15T23:54:27.804Z,79.60
2019-06-15T23:56:56.954Z,79.80
